CST,Max TemperatureF,Mean TemperatureF,Min TemperatureF,Max Dew PointF,MeanDew PointF,Min DewpointF,Max Humidity, Mean Humidity, Min Humidity, Max Sea Level PressureIn, Mean Sea Level PressureIn, Min Sea Level PressureIn, Max VisibilityMiles, Mean VisibilityMiles, Min VisibilityMiles, Max Wind SpeedMPH, Mean Wind SpeedMPH, Max Gust SpeedMPH,PrecipitationIn, CloudCover, Events, WindDirDegrees
2014-1-1,12,8,3,7,4,-4,85,78,66,30.48,30.26,30.15,10,8,2,15,11,21,0.03,6,Snow,14
2014-1-2,10,3,-4,-2,-4,-9,85,72,50,30.56,30.50,30.38,10,10,9,10,6,,0.00,2,Snow,352
2014-1-3,35,18,1,26,11,-4,98,78,67,30.46,30.03,29.65,10,10,10,16,9,25,0.00,2,,157
2014-1-4,35,24,10,32,15,4,99,78,64,30.30,29.99,29.66,10,10,10,20,9,28,0.00,3,,345
2014-1-5,9,1,-8,3,-10,-22,79,56,41,30.65,30.48,30.31,10,10,9,25,16,37,0.00,0,Snow,332
2014-1-6,4,-3,-10,-11,-16,-20,81,60,48,30.61,30.54,30.39,10,10,10,21,11,29,0.00,0,,296
2014-1-7,26,10,-5,10,0,-10,80,68,47,30.36,30.21,30.12,10,10,10,10,4,,0.00,2,Snow,115
2014-1-8,22,18,9,15,10,4,90,72,57,30.47,30.37,30.24,10,9,5,10,5,,0.01,5,Snow,44
2014-1-9,25,14,4,25,14,2,100,85,70,30.42,30.17,29.93,10,10,6,15,6,,0.00,6,,143
2014-1-10,34,28,21,35,29,21,100,100,93,29.97,29.70,29.56,10,3,0,10,7,,0.00,6,Fog,180
2014-1-11,46,29,12,32,22,12,100,90,48,29.86,29.74,29.62,10,8,1,20,4,24,0.00,1,,280
2014-1-12,53,40,27,40,32,27,99,77,38,29.73,29.61,29.48,10,10,10,14,5,22,0.00,1,Rain,269
2014-1-13,46,36,27,38,27,22,97,71,40,29.90,29.79,29.68,10,10,10,15,9,23,0.00,1,,272
2014-1-14,45,33,18,34,18,8,78,55,34,30.28,30.06,29.69,10,10,10,32,17,40,0.00,1,,320
2014-1-15,35,22,10,26,13,5,81,64,44,30.30,30.09,29.81,10,10,10,16,9,23,0.00,3,,230
2014-1-16,43,29,15,32,16,5,79,60,37,30.12,29.91,29.71,10,9,4,39,19,54,0.00,4,Rain-Snow,309
2014-1-17,30,20,10,11,-2,-11,55,39,17,30.22,30.13,29.89,10,10,10,21,13,28,0.00,1,,302
2014-1-18,42,30,17,35,23,14,91,66,48,30.13,29.83,29.65,10,10,8,38,15,56,0.00,5,Rain,300
2014-1-19,66,40,13,24,21,13,97,52,17,30.06,29.85,29.68,10,10,10,16,8,22,0.00,0,,258
2014-1-20,48,28,4,36,16,-6,96,69,37,30.52,30.19,29.85,10,9,4,30,15,45,0.02,4,Rain-Snow,324
2014-1-21,24,10,-2,5,-8,-14,65,46,32,30.59,30.37,30.05,10,10,10,16,10,28,0.00,4,,230
2014-1-22,27,14,0,19,10,-12,76,63,42,30.68,30.22,30.05,10,9,2,23,12,31,0.00,5,Snow,321
2014-1-23,15,6,-4,-7,-10,-13,71,53,35,30.93,30.79,30.56,10,10,10,14,10,18,0.00,0,,283
2014-1-24,52,30,8,38,19,-7,62,49,30,30.51,29.96,29.68,10,10,10,20,11,33,0.00,4,Rain,247
2014-1-25,44,36,28,37,26,10,100,71,35,30.11,29.91,29.59,10,10,8,24,14,33,0.00,6,Rain,321
2014-1-26,53,30,6,32,15,-15,67,47,18,30.37,29.86,29.55,10,10,10,32,16,52,0.00,2,Snow,307
2014-1-27,11,4,-5,-10,-12,-14,72,49,31,30.59,30.53,30.40,10,10,10,17,12,25,0.00,0,,326
2014-1-28,20,6,-8,-4,-9,-14,81,59,28,30.57,30.46,30.31,10,10,10,15,3,21,0.00,0,,281
2014-1-29,45,20,-4,11,4,-9,81,49,23,30.31,30.01,29.66,10,10,10,20,7,28,0.00,0,,151
2014-1-30,41,30,17,23,12,5,62,43,28,30.14,29.75,29.45,10,10,10,26,15,38,0.00,3,Rain,310
2014-1-31,26,20,14,20,7,-1,98,58,35,30.24,30.10,29.97,10,9,2,12,7,,0.00,6,Snow,60